sensor_id;sensor_type;location;lat;lon;timestamp;P1;durP1;ratioP1;P2;durP2;ratioP2
3189;SDS011;1606;51.946;10.558;2022-07-23T00:00:32;352.37;;;330.43;;
3189;SDS011;1606;51.946;10.558;2022-07-23T00:03:04;357.30;;;335.70;;
3189;SDS011;1606;51.946;10.558;2022-07-23T00:05:32;317.50;;;297.23;;
3189;SDS011;1606;51.946;10.558;2022-07-23T00:08:02;351.87;;;329.83;;
3189;SDS011;1606;51.946;10.558;2022-07-23T00:10:35;285.03;;;265.90;;
3189;SDS011;1606;51.946;10.558;2022-07-23T00:13:03;288.70;;;269.07;;
3189;SDS011;1606;51.946;10.558;2022-07-23T00:15:31;280.30;;;261.53;;
3189;SDS011;1606;51.946;10.558;2022-07-23T00:17:59;269.13;;;250.80;;
3189;SDS011;1606;51.946;10.558;2022-07-23T00:20:27;297.27;;;277.70;;
3189;SDS011;1606;51.946;10.558;2022-07-23T00:22:55;274.83;;;256.13;;
3189;SDS011;1606;51.946;10.558;2022-07-23T00:25:23;276.83;;;257.57;;
3189;SDS011;1606;51.946;10.558;2022-07-23T00:27:55;194.37;;;177.10;;
3189;SDS011;1606;51.946;10.558;2022-07-23T00:30:23;154.07;;;138.60;;
3189;SDS011;1606;51.946;10.558;2022-07-23T00:32:52;145.40;;;130.90;;
3189;SDS011;1606;51.946;10.558;2022-07-23T00:35:22;142.07;;;127.47;;
3189;SDS011;1606;51.946;10.558;2022-07-23T00:37:51;133.43;;;119.27;;
3189;SDS011;1606;51.946;10.558;2022-07-23T00:40:20;140.10;;;125.60;;
3189;SDS011;1606;51.946;10.558;2022-07-23T00:42:47;130.93;;;116.73;;
3189;SDS011;1606;51.946;10.558;2022-07-23T00:45:17;138.93;;;124.33;;
3189;SDS011;1606;51.946;10.558;2022-07-23T00:47:45;133.63;;;119.33;;
3189;SDS011;1606;51.946;10.558;2022-07-23T00:50:14;126.90;;;113.13;;
3189;SDS011;1606;51.946;10.558;2022-07-23T00:52:42;132.00;;;117.80;;
3189;SDS011;1606;51.946;10.558;2022-07-23T00:55:10;135.30;;;121.00;;
3189;SDS011;1606;51.946;10.558;2022-07-23T00:57:39;127.90;;;114.03;;
3189;SDS011;1606;51.946;10.558;2022-07-23T01:00:09;141.37;;;127.03;;
3189;SDS011;1606;51.946;10.558;2022-07-23T01:02:39;140.53;;;125.73;;
3189;SDS011;1606;51.946;10.558;2022-07-23T01:05:08;140.43;;;125.97;;
3189;SDS011;1606;51.946;10.558;2022-07-23T01:07:36;133.03;;;118.70;;
3189;SDS011;1606;51.946;10.558;2022-07-23T01:10:05;132.43;;;118.33;;
3189;SDS011;1606;51.946;10.558;2022-07-23T01:12:55;135.23;;;120.90;;
3189;SDS011;1606;51.946;10.558;2022-07-23T01:15:25;130.40;;;116.43;;
3189;SDS011;1606;51.946;10.558;2022-07-23T01:17:55;130.73;;;116.47;;
3189;SDS011;1606;51.946;10.558;2022-07-23T01:20:23;134.50;;;120.00;;
3189;SDS011;1606;51.946;10.558;2022-07-23T01:22:52;138.13;;;123.77;;
3189;SDS011;1606;51.946;10.558;2022-07-23T01:25:20;133.73;;;119.30;;
3189;SDS011;1606;51.946;10.558;2022-07-23T01:27:48;139.90;;;125.60;;
3189;SDS011;1606;51.946;10.558;2022-07-23T01:30:18;129.13;;;114.90;;
3189;SDS011;1606;51.946;10.558;2022-07-23T01:32:46;133.07;;;118.30;;
3189;SDS011;1606;51.946;10.558;2022-07-23T01:35:14;125.40;;;111.57;;
3189;SDS011;1606;51.946;10.558;2022-07-23T01:37:41;130.27;;;116.03;;
3189;SDS011;1606;51.946;10.558;2022-07-23T01:40:11;174.65;;;158.02;;
3189;SDS011;1606;51.946;10.558;2022-07-23T01:42:39;133.73;;;119.33;;
3189;SDS011;1606;51.946;10.558;2022-07-23T01:45:07;128.87;;;114.80;;
3189;SDS011;1606;51.946;10.558;2022-07-23T01:47:36;131.73;;;117.60;;
3189;SDS011;1606;51.946;10.558;2022-07-23T01:50:04;133.27;;;114.50;;
3189;SDS011;1606;51.946;10.558;2022-07-23T01:52:32;127.90;;;112.27;;
3189;SDS011;1606;51.946;10.558;2022-07-23T01:55:00;125.27;;;109.57;;
3189;SDS011;1606;51.946;10.558;2022-07-23T01:57:30;129.83;;;115.73;;
3189;SDS011;1606;51.946;10.558;2022-07-23T01:59:58;126.77;;;112.00;;
3189;SDS011;1606;51.946;10.558;2022-07-23T02:02:25;124.27;;;109.37;;
3189;SDS011;1606;51.946;10.558;2022-07-23T02:04:53;127.03;;;112.87;;
3189;SDS011;1606;51.946;10.558;2022-07-23T02:07:22;131.30;;;116.57;;
3189;SDS011;1606;51.946;10.558;2022-07-23T02:09:50;134.47;;;120.10;;
3189;SDS011;1606;51.946;10.558;2022-07-23T02:12:17;126.37;;;112.33;;
3189;SDS011;1606;51.946;10.558;2022-07-23T02:14:46;130.03;;;116.00;;
3189;SDS011;1606;51.946;10.558;2022-07-23T02:17:14;134.40;;;120.13;;
3189;SDS011;1606;51.946;10.558;2022-07-23T02:19:42;136.17;;;121.53;;
3189;SDS011;1606;51.946;10.558;2022-07-23T02:22:10;133.40;;;119.20;;
3189;SDS011;1606;51.946;10.558;2022-07-23T02:24:38;131.43;;;116.93;;
3189;SDS011;1606;51.946;10.558;2022-07-23T02:27:05;126.73;;;112.70;;
3189;SDS011;1606;51.946;10.558;2022-07-23T02:29:33;222.38;;;204.05;;
3189;SDS011;1606;51.946;10.558;2022-07-23T02:32:02;144.80;;;130.10;;
3189;SDS011;1606;51.946;10.558;2022-07-23T02:34:33;137.67;;;122.90;;
3189;SDS011;1606;51.946;10.558;2022-07-23T02:37:00;136.67;;;122.27;;
3189;SDS011;1606;51.946;10.558;2022-07-23T02:39:28;144.53;;;129.53;;
3189;SDS011;1606;51.946;10.558;2022-07-23T02:41:56;132.97;;;118.30;;
3189;SDS011;1606;51.946;10.558;2022-07-23T02:44:24;132.63;;;118.43;;
3189;SDS011;1606;51.946;10.558;2022-07-23T02:46:52;137.97;;;123.40;;
3189;SDS011;1606;51.946;10.558;2022-07-23T02:49:21;138.53;;;123.97;;
3189;SDS011;1606;51.946;10.558;2022-07-23T02:51:49;134.90;;;120.57;;
3189;SDS011;1606;51.946;10.558;2022-07-23T02:54:17;151.77;;;136.80;;
3189;SDS011;1606;51.946;10.558;2022-07-23T02:56:45;151.17;;;136.00;;
3189;SDS011;1606;51.946;10.558;2022-07-23T02:59:13;145.23;;;130.33;;
3189;SDS011;1606;51.946;10.558;2022-07-23T03:01:41;141.67;;;126.97;;
3189;SDS011;1606;51.946;10.558;2022-07-23T03:04:09;138.10;;;123.37;;
3189;SDS011;1606;51.946;10.558;2022-07-23T03:06:38;144.27;;;128.13;;
3189;SDS011;1606;51.946;10.558;2022-07-23T03:09:06;144.03;;;129.23;;
3189;SDS011;1606;51.946;10.558;2022-07-23T03:11:34;139.63;;;125.07;;
3189;SDS011;1606;51.946;10.558;2022-07-23T03:14:02;143.77;;;128.90;;
3189;SDS011;1606;51.946;10.558;2022-07-23T03:16:29;137.50;;;122.87;;
3189;SDS011;1606;51.946;10.558;2022-07-23T03:18:57;140.73;;;126.07;;
3189;SDS011;1606;51.946;10.558;2022-07-23T03:21:26;128.53;;;113.43;;
3189;SDS011;1606;51.946;10.558;2022-07-23T03:23:55;130.10;;;115.80;;
3189;SDS011;1606;51.946;10.558;2022-07-23T03:26:23;133.30;;;118.83;;
3189;SDS011;1606;51.946;10.558;2022-07-23T03:28:51;138.17;;;123.60;;
3189;SDS011;1606;51.946;10.558;2022-07-23T03:31:19;142.17;;;127.30;;
3189;SDS011;1606;51.946;10.558;2022-07-23T03:33:47;142.40;;;127.60;;
3189;SDS011;1606;51.946;10.558;2022-07-23T03:36:15;134.17;;;119.80;;
3189;SDS011;1606;51.946;10.558;2022-07-23T03:38:43;136.70;;;122.30;;
3189;SDS011;1606;51.946;10.558;2022-07-23T03:41:12;138.77;;;124.03;;
3189;SDS011;1606;51.946;10.558;2022-07-23T03:43:39;133.57;;;119.07;;
3189;SDS011;1606;51.946;10.558;2022-07-23T03:46:07;129.80;;;115.60;;
3189;SDS011;1606;51.946;10.558;2022-07-23T03:48:36;134.27;;;119.37;;
3189;SDS011;1606;51.946;10.558;2022-07-23T03:51:03;133.40;;;118.83;;
3189;SDS011;1606;51.946;10.558;2022-07-23T03:53:31;138.07;;;123.03;;
3189;SDS011;1606;51.946;10.558;2022-07-23T03:55:59;141.57;;;126.77;;
3189;SDS011;1606;51.946;10.558;2022-07-23T03:58:28;133.43;;;118.80;;
3189;SDS011;1606;51.946;10.558;2022-07-23T04:00:56;132.20;;;116.77;;
3189;SDS011;1606;51.946;10.558;2022-07-23T04:03:24;127.90;;;112.83;;
3189;SDS011;1606;51.946;10.558;2022-07-23T04:05:52;128.00;;;112.10;;
3189;SDS011;1606;51.946;10.558;2022-07-23T04:08:20;192.05;;;174.60;;
3189;SDS011;1606;51.946;10.558;2022-07-23T04:10:48;144.10;;;129.23;;
3189;SDS011;1606;51.946;10.558;2022-07-23T04:13:16;146.57;;;131.67;;
3189;SDS011;1606;51.946;10.558;2022-07-23T04:15:45;146.20;;;131.43;;
3189;SDS011;1606;51.946;10.558;2022-07-23T04:18:13;146.47;;;131.57;;
3189;SDS011;1606;51.946;10.558;2022-07-23T04:20:43;146.67;;;131.63;;
3189;SDS011;1606;51.946;10.558;2022-07-23T04:23:11;138.80;;;123.90;;
3189;SDS011;1606;51.946;10.558;2022-07-23T04:25:39;142.40;;;127.30;;
3189;SDS011;1606;51.946;10.558;2022-07-23T04:28:06;148.63;;;133.47;;
3189;SDS011;1606;51.946;10.558;2022-07-23T04:30:34;151.47;;;136.27;;
3189;SDS011;1606;51.946;10.558;2022-07-23T04:33:03;154.07;;;138.60;;
3189;SDS011;1606;51.946;10.558;2022-07-23T04:35:33;141.73;;;126.97;;
3189;SDS011;1606;51.946;10.558;2022-07-23T04:38:01;139.90;;;124.87;;
3189;SDS011;1606;51.946;10.558;2022-07-23T04:40:30;139.97;;;124.87;;
3189;SDS011;1606;51.946;10.558;2022-07-23T04:42:57;138.57;;;123.53;;
3189;SDS011;1606;51.946;10.558;2022-07-23T04:45:25;140.93;;;126.10;;
3189;SDS011;1606;51.946;10.558;2022-07-23T04:47:55;145.50;;;130.47;;
3189;SDS011;1606;51.946;10.558;2022-07-23T04:50:25;136.77;;;122.03;;
3189;SDS011;1606;51.946;10.558;2022-07-23T04:52:52;142.10;;;127.23;;
3189;SDS011;1606;51.946;10.558;2022-07-23T04:55:20;135.03;;;120.43;;
3189;SDS011;1606;51.946;10.558;2022-07-23T04:57:48;196.50;;;178.95;;
3189;SDS011;1606;51.946;10.558;2022-07-23T05:00:16;151.60;;;136.57;;
3189;SDS011;1606;51.946;10.558;2022-07-23T05:02:44;134.13;;;119.57;;
3189;SDS011;1606;51.946;10.558;2022-07-23T05:05:12;135.03;;;120.67;;
3189;SDS011;1606;51.946;10.558;2022-07-23T05:07:41;137.50;;;122.57;;
3189;SDS011;1606;51.946;10.558;2022-07-23T05:10:09;139.63;;;124.70;;
3189;SDS011;1606;51.946;10.558;2022-07-23T05:12:36;143.47;;;128.57;;
3189;SDS011;1606;51.946;10.558;2022-07-23T05:15:04;147.27;;;132.07;;
3189;SDS011;1606;51.946;10.558;2022-07-23T05:17:32;148.30;;;132.80;;
3189;SDS011;1606;51.946;10.558;2022-07-23T05:20:00;146.33;;;131.20;;
3189;SDS011;1606;51.946;10.558;2022-07-23T05:22:28;147.27;;;131.73;;
3189;SDS011;1606;51.946;10.558;2022-07-23T05:24:57;147.67;;;131.70;;
3189;SDS011;1606;51.946;10.558;2022-07-23T05:27:25;152.73;;;137.47;;
3189;SDS011;1606;51.946;10.558;2022-07-23T05:29:53;155.00;;;139.50;;
3189;SDS011;1606;51.946;10.558;2022-07-23T05:32:21;153.73;;;138.27;;
3189;SDS011;1606;51.946;10.558;2022-07-23T05:34:49;139.53;;;124.70;;
3189;SDS011;1606;51.946;10.558;2022-07-23T05:37:17;143.20;;;128.00;;
3189;SDS011;1606;51.946;10.558;2022-07-23T05:39:45;141.97;;;127.30;;
3189;SDS011;1606;51.946;10.558;2022-07-23T05:42:14;134.17;;;119.57;;
3189;SDS011;1606;51.946;10.558;2022-07-23T05:44:42;131.50;;;116.80;;
3189;SDS011;1606;51.946;10.558;2022-07-23T05:47:10;144.25;;;128.55;;
3189;SDS011;1606;51.946;10.558;2022-07-23T05:49:38;134.67;;;119.97;;
3189;SDS011;1606;51.946;10.558;2022-07-23T05:52:06;139.60;;;124.40;;
3189;SDS011;1606;51.946;10.558;2022-07-23T05:54:34;138.40;;;118.63;;
3189;SDS011;1606;51.946;10.558;2022-07-23T05:57:02;132.83;;;113.40;;
3189;SDS011;1606;51.946;10.558;2022-07-23T05:59:32;133.83;;;119.03;;
3189;SDS011;1606;51.946;10.558;2022-07-23T06:02:00;130.87;;;116.60;;
3189;SDS011;1606;51.946;10.558;2022-07-23T06:04:27;138.73;;;123.73;;
3189;SDS011;1606;51.946;10.558;2022-07-23T06:06:55;140.27;;;125.60;;
3189;SDS011;1606;51.946;10.558;2022-07-23T06:09:23;157.07;;;141.87;;
3189;SDS011;1606;51.946;10.558;2022-07-23T06:11:51;148.43;;;133.43;;
3189;SDS011;1606;51.946;10.558;2022-07-23T06:14:18;184.70;;;168.37;;
3189;SDS011;1606;51.946;10.558;2022-07-23T06:16:48;216.03;;;198.93;;
3189;SDS011;1606;51.946;10.558;2022-07-23T06:19:15;253.40;;;234.73;;
3189;SDS011;1606;51.946;10.558;2022-07-23T06:21:43;263.67;;;244.77;;
3189;SDS011;1606;51.946;10.558;2022-07-23T06:24:13;303.23;;;283.23;;
3189;SDS011;1606;51.946;10.558;2022-07-23T06:26:41;335.00;;;313.57;;
3189;SDS011;1606;51.946;10.558;2022-07-23T06:29:09;328.93;;;308.00;;
3189;SDS011;1606;51.946;10.558;2022-07-23T06:31:36;361.03;;;338.97;;
3189;SDS011;1606;51.946;10.558;2022-07-23T06:34:06;331.63;;;310.60;;
3189;SDS011;1606;51.946;10.558;2022-07-23T06:36:34;301.48;;;280.92;;
3189;SDS011;1606;51.946;10.558;2022-07-23T06:39:02;352.43;;;330.60;;
3189;SDS011;1606;51.946;10.558;2022-07-23T06:41:32;327.73;;;306.43;;
3189;SDS011;1606;51.946;10.558;2022-07-23T06:43:59;329.60;;;307.80;;
3189;SDS011;1606;51.946;10.558;2022-07-23T06:46:27;317.37;;;296.07;;
3189;SDS011;1606;51.946;10.558;2022-07-23T06:48:55;342.17;;;319.97;;
3189;SDS011;1606;51.946;10.558;2022-07-23T06:51:24;357.63;;;335.53;;
3189;SDS011;1606;51.946;10.558;2022-07-23T06:53:52;367.10;;;344.27;;
3189;SDS011;1606;51.946;10.558;2022-07-23T06:56:20;372.10;;;349.50;;
3189;SDS011;1606;51.946;10.558;2022-07-23T06:58:48;360.47;;;338.17;;
3189;SDS011;1606;51.946;10.558;2022-07-23T07:01:16;408.67;;;384.27;;
3189;SDS011;1606;51.946;10.558;2022-07-23T07:03:43;420.37;;;395.13;;
3189;SDS011;1606;51.946;10.558;2022-07-23T07:06:11;398.53;;;374.90;;
3189;SDS011;1606;51.946;10.558;2022-07-23T07:08:41;398.93;;;374.77;;
3189;SDS011;1606;51.946;10.558;2022-07-23T07:11:10;390.37;;;366.80;;
3189;SDS011;1606;51.946;10.558;2022-07-23T07:13:38;382.63;;;359.67;;
3189;SDS011;1606;51.946;10.558;2022-07-23T07:16:06;324.63;;;303.97;;
3189;SDS011;1606;51.946;10.558;2022-07-23T07:18:34;293.63;;;273.67;;
3189;SDS011;1606;51.946;10.558;2022-07-23T07:21:02;273.90;;;255.43;;
3189;SDS011;1606;51.946;10.558;2022-07-23T07:23:30;249.20;;;231.43;;
3189;SDS011;1606;51.946;10.558;2022-07-23T07:26:00;165.03;;;149.37;;
3189;SDS011;1606;51.946;10.558;2022-07-23T07:28:28;387.58;;;364.00;;
3189;SDS011;1606;51.946;10.558;2022-07-23T07:30:55;256.23;;;237.77;;
3189;SDS011;1606;51.946;10.558;2022-07-23T07:33:23;240.20;;;222.07;;
3189;SDS011;1606;51.946;10.558;2022-07-23T07:35:51;132.93;;;119.10;;
3189;SDS011;1606;51.946;10.558;2022-07-23T07:38:19;109.20;;;65.77;;
3189;SDS011;1606;51.946;10.558;2022-07-23T07:40:47;106.00;;;70.47;;
3189;SDS011;1606;51.946;10.558;2022-07-23T07:43:16;105.70;;;64.80;;
3189;SDS011;1606;51.946;10.558;2022-07-23T07:45:44;107.23;;;65.03;;
3189;SDS011;1606;51.946;10.558;2022-07-23T07:48:12;107.90;;;71.63;;
3189;SDS011;1606;51.946;10.558;2022-07-23T07:50:40;110.17;;;63.67;;
3189;SDS011;1606;51.946;10.558;2022-07-23T07:53:07;107.80;;;77.63;;
3189;SDS011;1606;51.946;10.558;2022-07-23T07:55:35;110.27;;;76.80;;
3189;SDS011;1606;51.946;10.558;2022-07-23T07:58:03;112.07;;;87.23;;
3189;SDS011;1606;51.946;10.558;2022-07-23T08:00:32;121.60;;;108.57;;
3189;SDS011;1606;51.946;10.558;2022-07-23T08:03:00;138.50;;;125.30;;
3189;SDS011;1606;51.946;10.558;2022-07-23T08:05:29;139.80;;;126.03;;
3189;SDS011;1606;51.946;10.558;2022-07-23T08:07:58;140.90;;;127.43;;
3189;SDS011;1606;51.946;10.558;2022-07-23T08:10:27;107.10;;;92.30;;
3189;SDS011;1606;51.946;10.558;2022-07-23T08:12:57;101.90;;;79.83;;
3189;SDS011;1606;51.946;10.558;2022-07-23T08:15:28;101.77;;;74.67;;
3189;SDS011;1606;51.946;10.558;2022-07-23T08:17:58;95.63;;;60.40;;
3189;SDS011;1606;51.946;10.558;2022-07-23T08:20:26;93.23;;;52.37;;
3189;SDS011;1606;51.946;10.558;2022-07-23T08:22:55;90.40;;;44.30;;
3189;SDS011;1606;51.946;10.558;2022-07-23T08:25:24;90.60;;;51.50;;
3189;SDS011;1606;51.946;10.558;2022-07-23T08:27:54;97.67;;;53.60;;
3189;SDS011;1606;51.946;10.558;2022-07-23T08:30:22;91.70;;;52.90;;
3189;SDS011;1606;51.946;10.558;2022-07-23T08:32:51;93.00;;;49.77;;
3189;SDS011;1606;51.946;10.558;2022-07-23T08:35:23;89.30;;;47.83;;
3189;SDS011;1606;51.946;10.558;2022-07-23T08:37:52;92.60;;;54.30;;
3189;SDS011;1606;51.946;10.558;2022-07-23T08:40:20;87.13;;;43.80;;
3189;SDS011;1606;51.946;10.558;2022-07-23T08:42:49;85.73;;;36.53;;
3189;SDS011;1606;51.946;10.558;2022-07-23T08:45:18;84.57;;;38.97;;
3189;SDS011;1606;51.946;10.558;2022-07-23T08:47:49;86.33;;;38.97;;
3189;SDS011;1606;51.946;10.558;2022-07-23T08:50:19;84.70;;;34.87;;
3189;SDS011;1606;51.946;10.558;2022-07-23T08:52:49;82.43;;;32.63;;
3189;SDS011;1606;51.946;10.558;2022-07-23T08:55:18;82.80;;;31.90;;
3189;SDS011;1606;51.946;10.558;2022-07-23T08:57:47;82.67;;;33.80;;
3189;SDS011;1606;51.946;10.558;2022-07-23T09:00:16;82.57;;;35.13;;
3189;SDS011;1606;51.946;10.558;2022-07-23T09:02:45;83.50;;;34.97;;
3189;SDS011;1606;51.946;10.558;2022-07-23T09:05:14;81.70;;;32.83;;
3189;SDS011;1606;51.946;10.558;2022-07-23T09:08:03;85.67;;;33.90;;
3189;SDS011;1606;51.946;10.558;2022-07-23T09:10:41;80.13;;;27.60;;
3189;SDS011;1606;51.946;10.558;2022-07-23T09:13:24;79.60;;;27.90;;
3189;SDS011;1606;51.946;10.558;2022-07-23T09:15:58;80.07;;;25.47;;
3189;SDS011;1606;51.946;10.558;2022-07-23T09:18:34;79.70;;;29.63;;
3189;SDS011;1606;51.946;10.558;2022-07-23T09:23:52;78.27;;;28.07;;
3189;SDS011;1606;51.946;10.558;2022-07-23T09:26:24;78.57;;;29.17;;
3189;SDS011;1606;51.946;10.558;2022-07-23T09:28:58;78.53;;;29.53;;
3189;SDS011;1606;51.946;10.558;2022-07-23T09:31:30;81.47;;;31.00;;
3189;SDS011;1606;51.946;10.558;2022-07-23T09:34:07;84.00;;;32.90;;
3189;SDS011;1606;51.946;10.558;2022-07-23T09:36:36;80.67;;;30.80;;
3189;SDS011;1606;51.946;10.558;2022-07-23T09:39:06;81.40;;;29.77;;
3189;SDS011;1606;51.946;10.558;2022-07-23T09:41:36;81.00;;;29.27;;
3189;SDS011;1606;51.946;10.558;2022-07-23T09:44:07;79.33;;;28.87;;
3189;SDS011;1606;51.946;10.558;2022-07-23T09:46:37;80.17;;;30.10;;
3189;SDS011;1606;51.946;10.558;2022-07-23T09:49:10;79.57;;;29.00;;
3189;SDS011;1606;51.946;10.558;2022-07-23T09:51:43;79.23;;;30.80;;
3189;SDS011;1606;51.946;10.558;2022-07-23T09:54:24;85.27;;;37.07;;
3189;SDS011;1606;51.946;10.558;2022-07-23T09:56:55;85.33;;;35.90;;
3189;SDS011;1606;51.946;10.558;2022-07-23T09:59:25;82.20;;;33.87;;
3189;SDS011;1606;51.946;10.558;2022-07-23T10:01:55;86.77;;;41.37;;
3189;SDS011;1606;51.946;10.558;2022-07-23T10:04:26;87.55;;;39.47;;
3189;SDS011;1606;51.946;10.558;2022-07-23T10:06:55;80.93;;;29.50;;
3189;SDS011;1606;51.946;10.558;2022-07-23T10:09:26;77.77;;;25.97;;
3189;SDS011;1606;51.946;10.558;2022-07-23T10:11:56;81.07;;;25.87;;
3189;SDS011;1606;51.946;10.558;2022-07-23T10:14:38;79.37;;;26.33;;
3189;SDS011;1606;51.946;10.558;2022-07-23T10:17:06;73.73;;;22.50;;
3189;SDS011;1606;51.946;10.558;2022-07-23T10:19:34;73.13;;;22.00;;
3189;SDS011;1606;51.946;10.558;2022-07-23T10:22:03;71.37;;;20.90;;
3189;SDS011;1606;51.946;10.558;2022-07-23T10:24:44;71.27;;;19.37;;
3189;SDS011;1606;51.946;10.558;2022-07-23T10:30:30;72.73;;;17.80;;
3189;SDS011;1606;51.946;10.558;2022-07-23T10:33:09;69.20;;;14.40;;
3189;SDS011;1606;51.946;10.558;2022-07-23T10:35:47;68.80;;;13.37;;
3189;SDS011;1606;51.946;10.558;2022-07-23T10:38:22;68.83;;;14.87;;
3189;SDS011;1606;51.946;10.558;2022-07-23T10:40:57;66.60;;;12.60;;
3189;SDS011;1606;51.946;10.558;2022-07-23T10:43:27;65.50;;;10.50;;
3189;SDS011;1606;51.946;10.558;2022-07-23T10:45:56;66.67;;;11.40;;
3189;SDS011;1606;51.946;10.558;2022-07-23T10:54:51;67.27;;;11.40;;
3189;SDS011;1606;51.946;10.558;2022-07-23T10:57:22;74.25;;;16.80;;
3189;SDS011;1606;51.946;10.558;2022-07-23T11:00:12;66.50;;;12.00;;
3189;SDS011;1606;51.946;10.558;2022-07-23T11:02:44;66.77;;;10.73;;
3189;SDS011;1606;51.946;10.558;2022-07-23T11:05:13;67.27;;;10.23;;
3189;SDS011;1606;51.946;10.558;2022-07-23T11:10:43;64.60;;;10.40;;
3189;SDS011;1606;51.946;10.558;2022-07-23T11:16:13;66.67;;;9.93;;
3189;SDS011;1606;51.946;10.558;2022-07-23T11:18:54;66.40;;;9.50;;
3189;SDS011;1606;51.946;10.558;2022-07-23T11:24:16;65.27;;;11.40;;
3189;SDS011;1606;51.946;10.558;2022-07-23T11:29:45;65.40;;;9.40;;
3189;SDS011;1606;51.946;10.558;2022-07-23T11:32:28;63.87;;;9.50;;
3189;SDS011;1606;51.946;10.558;2022-07-23T11:35:18;63.30;;;9.93;;
3189;SDS011;1606;51.946;10.558;2022-07-23T11:37:48;63.40;;;10.20;;
3189;SDS011;1606;51.946;10.558;2022-07-23T11:40:20;65.67;;;10.50;;
3189;SDS011;1606;51.946;10.558;2022-07-23T11:42:51;64.20;;;10.50;;
3189;SDS011;1606;51.946;10.558;2022-07-23T11:45:23;65.20;;;10.23;;
3189;SDS011;1606;51.946;10.558;2022-07-23T11:47:53;64.32;;;10.23;;
3189;SDS011;1606;51.946;10.558;2022-07-23T11:50:22;63.90;;;10.87;;
3189;SDS011;1606;51.946;10.558;2022-07-23T11:52:51;61.77;;;9.73;;
3189;SDS011;1606;51.946;10.558;2022-07-23T11:55:19;62.70;;;10.10;;
3189;SDS011;1606;51.946;10.558;2022-07-23T11:57:50;63.93;;;9.83;;
3189;SDS011;1606;51.946;10.558;2022-07-23T12:00:19;62.83;;;9.60;;
3189;SDS011;1606;51.946;10.558;2022-07-23T12:02:51;63.90;;;11.10;;
3189;SDS011;1606;51.946;10.558;2022-07-23T12:05:21;65.10;;;9.23;;
3189;SDS011;1606;51.946;10.558;2022-07-23T12:07:51;62.23;;;9.57;;
3189;SDS011;1606;51.946;10.558;2022-07-23T12:10:20;62.37;;;9.40;;
3189;SDS011;1606;51.946;10.558;2022-07-23T12:12:49;62.50;;;9.20;;
3189;SDS011;1606;51.946;10.558;2022-07-23T12:15:20;62.07;;;9.67;;
3189;SDS011;1606;51.946;10.558;2022-07-23T12:17:51;62.80;;;9.40;;
3189;SDS011;1606;51.946;10.558;2022-07-23T12:20:22;63.90;;;9.80;;
3189;SDS011;1606;51.946;10.558;2022-07-23T12:22:51;63.40;;;10.60;;
3189;SDS011;1606;51.946;10.558;2022-07-23T12:25:23;63.23;;;9.47;;
3189;SDS011;1606;51.946;10.558;2022-07-23T12:27:59;63.80;;;10.83;;
3189;SDS011;1606;51.946;10.558;2022-07-23T12:30:31;62.30;;;9.43;;
3189;SDS011;1606;51.946;10.558;2022-07-23T12:33:01;62.90;;;9.57;;
3189;SDS011;1606;51.946;10.558;2022-07-23T12:35:31;62.00;;;9.77;;
3189;SDS011;1606;51.946;10.558;2022-07-23T12:38:01;62.80;;;9.53;;
3189;SDS011;1606;51.946;10.558;2022-07-23T12:40:32;60.30;;;9.03;;
3189;SDS011;1606;51.946;10.558;2022-07-23T12:43:03;63.93;;;9.87;;
3189;SDS011;1606;51.946;10.558;2022-07-23T12:45:47;65.50;;;10.73;;
3189;SDS011;1606;51.946;10.558;2022-07-23T12:48:19;62.60;;;9.33;;
3189;SDS011;1606;51.946;10.558;2022-07-23T12:50:58;64.20;;;10.20;;
3189;SDS011;1606;51.946;10.558;2022-07-23T12:53:28;62.07;;;9.63;;
3189;SDS011;1606;51.946;10.558;2022-07-23T12:55:58;61.37;;;9.60;;
3189;SDS011;1606;51.946;10.558;2022-07-23T12:58:41;61.17;;;8.70;;
3189;SDS011;1606;51.946;10.558;2022-07-23T13:01:22;61.60;;;10.37;;
3189;SDS011;1606;51.946;10.558;2022-07-23T13:04:01;59.80;;;8.90;;
3189;SDS011;1606;51.946;10.558;2022-07-23T13:06:38;61.40;;;8.80;;
3189;SDS011;1606;51.946;10.558;2022-07-23T13:09:07;60.90;;;9.30;;
3189;SDS011;1606;51.946;10.558;2022-07-23T13:11:37;62.37;;;9.40;;
3189;SDS011;1606;51.946;10.558;2022-07-23T13:14:05;60.00;;;8.97;;
3189;SDS011;1606;51.946;10.558;2022-07-23T13:16:34;60.03;;;9.43;;
3189;SDS011;1606;51.946;10.558;2022-07-23T13:19:05;62.30;;;9.30;;
3189;SDS011;1606;51.946;10.558;2022-07-23T13:21:37;60.90;;;8.40;;
3189;SDS011;1606;51.946;10.558;2022-07-23T13:24:07;62.27;;;10.77;;
3189;SDS011;1606;51.946;10.558;2022-07-23T13:26:38;60.67;;;8.83;;
3189;SDS011;1606;51.946;10.558;2022-07-23T13:29:07;62.10;;;9.30;;
3189;SDS011;1606;51.946;10.558;2022-07-23T13:31:36;61.17;;;9.63;;
3189;SDS011;1606;51.946;10.558;2022-07-23T13:34:06;65.53;;;10.52;;
3189;SDS011;1606;51.946;10.558;2022-07-23T13:36:34;60.93;;;9.50;;
3189;SDS011;1606;51.946;10.558;2022-07-23T13:39:02;61.37;;;9.10;;
3189;SDS011;1606;51.946;10.558;2022-07-23T13:41:34;62.67;;;9.63;;
3189;SDS011;1606;51.946;10.558;2022-07-23T13:44:03;64.70;;;10.60;;
3189;SDS011;1606;51.946;10.558;2022-07-23T13:46:32;61.70;;;9.60;;
3189;SDS011;1606;51.946;10.558;2022-07-23T13:49:00;62.30;;;9.90;;
3189;SDS011;1606;51.946;10.558;2022-07-23T13:51:33;62.10;;;8.60;;
3189;SDS011;1606;51.946;10.558;2022-07-23T13:54:01;64.67;;;9.97;;
3189;SDS011;1606;51.946;10.558;2022-07-23T13:56:29;62.33;;;10.70;;
3189;SDS011;1606;51.946;10.558;2022-07-23T13:58:57;60.17;;;9.20;;
3189;SDS011;1606;51.946;10.558;2022-07-23T14:01:25;63.00;;;9.90;;
3189;SDS011;1606;51.946;10.558;2022-07-23T14:04:04;62.30;;;9.90;;
3189;SDS011;1606;51.946;10.558;2022-07-23T14:06:33;62.20;;;10.10;;
3189;SDS011;1606;51.946;10.558;2022-07-23T14:09:01;60.43;;;9.10;;
3189;SDS011;1606;51.946;10.558;2022-07-23T14:11:30;61.17;;;10.43;;
3189;SDS011;1606;51.946;10.558;2022-07-23T14:13:58;60.03;;;9.30;;
3189;SDS011;1606;51.946;10.558;2022-07-23T14:16:27;61.13;;;9.90;;
3189;SDS011;1606;51.946;10.558;2022-07-23T14:18:55;62.30;;;10.50;;
3189;SDS011;1606;51.946;10.558;2022-07-23T14:21:23;59.80;;;8.60;;
3189;SDS011;1606;51.946;10.558;2022-07-23T14:23:53;60.03;;;9.00;;
3189;SDS011;1606;51.946;10.558;2022-07-23T14:26:21;66.05;;;10.65;;
3189;SDS011;1606;51.946;10.558;2022-07-23T14:28:49;64.17;;;11.03;;
3189;SDS011;1606;51.946;10.558;2022-07-23T14:31:17;59.77;;;9.80;;
3189;SDS011;1606;51.946;10.558;2022-07-23T14:33:47;60.77;;;9.50;;
3189;SDS011;1606;51.946;10.558;2022-07-23T14:36:15;61.10;;;9.60;;
3189;SDS011;1606;51.946;10.558;2022-07-23T14:38:43;62.90;;;9.27;;
3189;SDS011;1606;51.946;10.558;2022-07-23T14:41:12;63.70;;;10.87;;
3189;SDS011;1606;51.946;10.558;2022-07-23T14:44:00;60.70;;;8.90;;
3189;SDS011;1606;51.946;10.558;2022-07-23T14:46:28;61.37;;;9.40;;
3189;SDS011;1606;51.946;10.558;2022-07-23T14:48:56;63.37;;;9.30;;
3189;SDS011;1606;51.946;10.558;2022-07-23T14:51:24;61.10;;;10.33;;
3189;SDS011;1606;51.946;10.558;2022-07-23T14:53:54;60.80;;;8.97;;
3189;SDS011;1606;51.946;10.558;2022-07-23T14:56:23;61.07;;;10.30;;
3189;SDS011;1606;51.946;10.558;2022-07-23T14:58:51;59.70;;;8.70;;
3189;SDS011;1606;51.946;10.558;2022-07-23T15:01:22;64.80;;;9.67;;